X06 weather

Arcadia Municipal Airport
Arcadia, Florida, United States

Public forecast

Using degrees Fahrenheit for public forecast. Weather courtesy of forecast.io.

Closest aviation weather report (METAR) to Arcadia Municipal Airport

Closest report is Charlotte County Airport, 18.3 nm (33.8 km) SSW. Retrieved 2020/06/06 07:53 UTC (1 hour ago):

KPGD 060753Z AUTO 08008KT 10SM -RA FEW090 24/24 A2995 RMK AO2 SLP142 P0003 T02390239

Closest aviation forecast (TAF) to Arcadia Municipal Airport

Closest forecast is Charlotte County Airport, 18.3 nm (33.8 km) SSW. Retrieved 2020/06/06 06:39 UTC (2 hours ago):

TAF KPGD 060535Z 0606/0706 06006KT P6SM VCSH FEW020 SCT080 OVC120 FM060700 09008KT 5SM SHRA VCTS SCT020CB BKN050 FM061400 14012G20KT P6SM VCTS SCT015CB OVC100 FM061900 18010G18KT P6SM VCTS SCT035CB OVC100 FM070200 12012KT P6SM VCSH SCT025 OVC050